Rosebud, Montana
Current Conditions -  °F | °C
As of 2:53 PM on Saturday 20 Dec 2014 (Local Time) from KMLS Reporting Station
Clear Clear  
Wind Chill: 38°   Ceiling: Unl
Heat Index: 42°   Visibility: 10mi
Dew Point: 24°   Wind: 7mph
Humidity: 49%   Direction: 270°W
Pressure: 29.84"   Gusts: NA
Location:  46.27°N, 106.45°W
Report Text: KMLS 202153Z AUTO 27006KT 10SM CLR 06/M04 A2984 RMK AO2 SLP124 T00561044
Loading
Personal Weather Stations






























Interactive Weather Map New forecast layout! Learn more

10-Day Weather Forecast

Advertisements
Track Severe Weather on mobile